sensor_id;sensor_type;location;lat;lon;timestamp;pressure;altitude;pressure_sealevel;temperature;humidity
68077;BME280;54866;53.458;14.540;2023-04-20T00:00:12;101301.59;;;5.44;95.26
68077;BME280;54866;53.458;14.540;2023-04-20T00:02:42;101300.02;;;5.44;95.42
68077;BME280;54866;53.458;14.540;2023-04-20T00:05:12;101300.73;;;5.44;95.34
68077;BME280;54866;53.458;14.540;2023-04-20T00:07:41;101302.36;;;5.43;95.50
68077;BME280;54866;53.458;14.540;2023-04-20T00:10:11;101299.48;;;5.41;95.66
68077;BME280;54866;53.458;14.540;2023-04-20T00:12:41;101293.37;;;5.37;95.63
68077;BME280;54866;53.458;14.540;2023-04-20T00:15:11;101300.80;;;5.35;95.81
68077;BME280;54866;53.458;14.540;2023-04-20T00:17:40;101302.17;;;5.32;95.98
68077;BME280;54866;53.458;14.540;2023-04-20T00:20:11;101304.81;;;5.31;96.06
68077;BME280;54866;53.458;14.540;2023-04-20T00:22:42;101300.38;;;5.30;96.23
68077;BME280;54866;53.458;14.540;2023-04-20T00:25:11;101294.48;;;5.25;96.55
68077;BME280;54866;53.458;14.540;2023-04-20T00:27:41;101299.54;;;5.25;96.55
68077;BME280;54866;53.458;14.540;2023-04-20T00:30:12;101296.92;;;5.25;96.61
68077;BME280;54866;53.458;14.540;2023-04-20T00:32:42;101287.04;;;5.23;96.77
68077;BME280;54866;53.458;14.540;2023-04-20T00:35:11;101283.59;;;5.23;96.81
68077;BME280;54866;53.458;14.540;2023-04-20T00:37:40;101279.20;;;5.19;97.11
68077;BME280;54866;53.458;14.540;2023-04-20T00:40:11;101278.02;;;5.18;97.22
68077;BME280;54866;53.458;14.540;2023-04-20T00:42:40;101284.73;;;5.16;97.35
68077;BME280;54866;53.458;14.540;2023-04-20T00:45:10;101288.61;;;5.15;97.07
68077;BME280;54866;53.458;14.540;2023-04-20T00:47:40;101286.51;;;5.15;97.28
68077;BME280;54866;53.458;14.540;2023-04-20T00:50:11;101288.77;;;5.16;97.17
68077;BME280;54866;53.458;14.540;2023-04-20T00:52:41;101292.61;;;5.15;97.16
68077;BME280;54866;53.458;14.540;2023-04-20T00:55:11;101291.89;;;5.16;97.02
68077;BME280;54866;53.458;14.540;2023-04-20T00:57:41;101288.58;;;5.16;97.24
68077;BME280;54866;53.458;14.540;2023-04-20T01:00:12;101292.92;;;5.16;97.16
68077;BME280;54866;53.458;14.540;2023-04-20T01:02:42;101289.92;;;5.18;97.07
68077;BME280;54866;53.458;14.540;2023-04-20T01:05:11;101285.56;;;5.17;97.03
68077;BME280;54866;53.458;14.540;2023-04-20T01:07:41;101288.66;;;5.18;96.80
68077;BME280;54866;53.458;14.540;2023-04-20T01:10:11;101282.35;;;5.19;96.86
68077;BME280;54866;53.458;14.540;2023-04-20T01:12:41;101284.06;;;5.19;96.82
68077;BME280;54866;53.458;14.540;2023-04-20T01:15:11;101281.77;;;5.20;96.73
68077;BME280;54866;53.458;14.540;2023-04-20T01:17:40;101280.88;;;5.20;96.56
68077;BME280;54866;53.458;14.540;2023-04-20T01:20:12;101275.29;;;5.20;96.44
68077;BME280;54866;53.458;14.540;2023-04-20T01:22:46;101276.70;;;5.20;96.37
68077;BME280;54866;53.458;14.540;2023-04-20T01:25:16;101273.15;;;5.21;96.18
68077;BME280;54866;53.458;14.540;2023-04-20T01:27:46;101274.14;;;5.23;96.27
68077;BME280;54866;53.458;14.540;2023-04-20T01:30:15;101266.27;;;5.23;96.22
68077;BME280;54866;53.458;14.540;2023-04-20T01:35:14;101262.63;;;5.23;96.32
68077;BME280;54866;53.458;14.540;2023-04-20T01:37:44;101261.95;;;5.22;96.32
68077;BME280;54866;53.458;14.540;2023-04-20T01:40:14;101258.42;;;5.22;96.41
68077;BME280;54866;53.458;14.540;2023-04-20T01:42:44;101263.98;;;5.23;96.55
68077;BME280;54866;53.458;14.540;2023-04-20T01:45:13;101267.98;;;5.24;96.59
68077;BME280;54866;53.458;14.540;2023-04-20T01:47:42;101264.61;;;5.25;96.69
68077;BME280;54866;53.458;14.540;2023-04-20T01:50:12;101262.88;;;5.24;96.67
68077;BME280;54866;53.458;14.540;2023-04-20T01:52:42;101264.95;;;5.25;96.73
68077;BME280;54866;53.458;14.540;2023-04-20T01:55:11;101268.77;;;5.25;96.60
68077;BME280;54866;53.458;14.540;2023-04-20T01:57:41;101264.94;;;5.25;96.54
68077;BME280;54866;53.458;14.540;2023-04-20T02:00:13;101263.94;;;5.24;96.50
68077;BME280;54866;53.458;14.540;2023-04-20T02:02:42;101264.38;;;5.22;96.82
68077;BME280;54866;53.458;14.540;2023-04-20T02:05:12;101265.88;;;5.19;96.37
68077;BME280;54866;53.458;14.540;2023-04-20T02:07:41;101262.01;;;5.17;96.54
68077;BME280;54866;53.458;14.540;2023-04-20T02:10:11;101258.22;;;5.15;96.85
68077;BME280;54866;53.458;14.540;2023-04-20T02:12:41;101259.59;;;5.12;96.90
68077;BME280;54866;53.458;14.540;2023-04-20T02:15:10;101253.94;;;5.10;97.10
68077;BME280;54866;53.458;14.540;2023-04-20T02:17:40;101249.84;;;5.08;96.97
68077;BME280;54866;53.458;14.540;2023-04-20T02:20:11;101251.23;;;5.08;97.05
68077;BME280;54866;53.458;14.540;2023-04-20T02:22:41;101252.31;;;5.07;97.21
68077;BME280;54866;53.458;14.540;2023-04-20T02:25:11;101253.57;;;5.07;97.35
68077;BME280;54866;53.458;14.540;2023-04-20T02:27:40;101254.98;;;5.06;97.22
68077;BME280;54866;53.458;14.540;2023-04-20T02:30:11;101254.95;;;5.07;97.28
68077;BME280;54866;53.458;14.540;2023-04-20T02:32:40;101251.68;;;5.06;97.24
68077;BME280;54866;53.458;14.540;2023-04-20T02:35:11;101255.88;;;5.06;97.22
68077;BME280;54866;53.458;14.540;2023-04-20T02:37:40;101259.44;;;5.08;97.04
68077;BME280;54866;53.458;14.540;2023-04-20T02:40:10;101256.96;;;5.08;97.15
68077;BME280;54866;53.458;14.540;2023-04-20T02:42:40;101257.98;;;5.09;97.08
68077;BME280;54866;53.458;14.540;2023-04-20T02:45:11;101253.93;;;5.10;97.00
68077;BME280;54866;53.458;14.540;2023-04-20T02:47:41;101251.25;;;5.11;97.31
68077;BME280;54866;53.458;14.540;2023-04-20T02:50:11;101247.06;;;5.11;97.28
68077;BME280;54866;53.458;14.540;2023-04-20T02:52:41;101247.31;;;5.13;97.25
68077;BME280;54866;53.458;14.540;2023-04-20T02:55:10;101249.55;;;5.13;97.33
68077;BME280;54866;53.458;14.540;2023-04-20T02:57:39;101248.11;;;5.14;97.53
68077;BME280;54866;53.458;14.540;2023-04-20T03:00:11;101246.48;;;5.16;97.53
68077;BME280;54866;53.458;14.540;2023-04-20T03:02:41;101245.04;;;5.17;97.57
68077;BME280;54866;53.458;14.540;2023-04-20T03:05:10;101240.98;;;5.18;97.51
68077;BME280;54866;53.458;14.540;2023-04-20T03:07:40;101244.22;;;5.20;97.63
68077;BME280;54866;53.458;14.540;2023-04-20T03:10:12;101245.23;;;5.21;97.51
68077;BME280;54866;53.458;14.540;2023-04-20T03:12:42;101249.27;;;5.20;97.59
68077;BME280;54866;53.458;14.540;2023-04-20T03:15:12;101251.02;;;5.24;97.60
68077;BME280;54866;53.458;14.540;2023-04-20T03:17:42;101249.86;;;5.26;97.58
68077;BME280;54866;53.458;14.540;2023-04-20T03:20:12;101250.80;;;5.28;97.56
68077;BME280;54866;53.458;14.540;2023-04-20T03:22:42;101251.40;;;5.30;97.65
68077;BME280;54866;53.458;14.540;2023-04-20T03:25:11;101247.13;;;5.32;97.84
68077;BME280;54866;53.458;14.540;2023-04-20T03:27:41;101251.26;;;5.33;97.81
68077;BME280;54866;53.458;14.540;2023-04-20T03:30:12;101250.64;;;5.35;97.68
68077;BME280;54866;53.458;14.540;2023-04-20T03:32:42;101251.59;;;5.37;97.67
68077;BME280;54866;53.458;14.540;2023-04-20T03:35:12;101255.72;;;5.39;97.65
68077;BME280;54866;53.458;14.540;2023-04-20T03:37:41;101258.27;;;5.40;97.77
68077;BME280;54866;53.458;14.540;2023-04-20T03:40:12;101257.68;;;5.42;97.64
68077;BME280;54866;53.458;14.540;2023-04-20T03:42:41;101252.92;;;5.42;97.61
68077;BME280;54866;53.458;14.540;2023-04-20T03:45:12;101248.75;;;5.42;97.63
68077;BME280;54866;53.458;14.540;2023-04-20T03:47:41;101254.92;;;5.44;97.50
68077;BME280;54866;53.458;14.540;2023-04-20T03:50:11;101255.77;;;5.45;97.48
68077;BME280;54866;53.458;14.540;2023-04-20T03:52:41;101258.17;;;5.46;97.32
68077;BME280;54866;53.458;14.540;2023-04-20T03:55:10;101254.89;;;5.45;97.44
68077;BME280;54866;53.458;14.540;2023-04-20T03:57:40;101255.68;;;5.47;97.33
68077;BME280;54866;53.458;14.540;2023-04-20T04:00:11;101251.85;;;5.47;97.40
68077;BME280;54866;53.458;14.540;2023-04-20T04:02:41;101254.64;;;5.47;97.32
68077;BME280;54866;53.458;14.540;2023-04-20T04:05:10;101252.89;;;5.47;97.34
68077;BME280;54866;53.458;14.540;2023-04-20T04:07:39;101252.81;;;5.48;97.26
68077;BME280;54866;53.458;14.540;2023-04-20T04:10:10;101257.58;;;5.51;97.37
68077;BME280;54866;53.458;14.540;2023-04-20T04:12:40;101258.02;;;5.53;97.71
68077;BME280;54866;53.458;14.540;2023-04-20T04:15:11;101258.06;;;5.55;97.73
68077;BME280;54866;53.458;14.540;2023-04-20T04:17:40;101259.11;;;5.59;97.81
68077;BME280;54866;53.458;14.540;2023-04-20T04:20:11;101265.95;;;5.62;97.68
68077;BME280;54866;53.458;14.540;2023-04-20T04:22:41;101262.10;;;5.66;97.41
68077;BME280;54866;53.458;14.540;2023-04-20T04:25:11;101258.00;;;5.67;97.21
68077;BME280;54866;53.458;14.540;2023-04-20T04:27:40;101260.47;;;5.70;96.92
68077;BME280;54866;53.458;14.540;2023-04-20T04:30:12;101258.11;;;5.72;96.74
68077;BME280;54866;53.458;14.540;2023-04-20T04:32:42;101257.89;;;5.73;96.71
68077;BME280;54866;53.458;14.540;2023-04-20T04:35:12;101259.91;;;5.75;96.59
68077;BME280;54866;53.458;14.540;2023-04-20T04:37:41;101261.22;;;5.77;96.68
68077;BME280;54866;53.458;14.540;2023-04-20T04:40:11;101264.09;;;5.79;96.69
68077;BME280;54866;53.458;14.540;2023-04-20T04:42:40;101265.23;;;5.81;96.93
68077;BME280;54866;53.458;14.540;2023-04-20T04:45:12;101265.21;;;5.84;96.92
68077;BME280;54866;53.458;14.540;2023-04-20T04:47:42;101268.95;;;5.87;96.94
68077;BME280;54866;53.458;14.540;2023-04-20T04:50:12;101265.22;;;5.88;97.13
68077;BME280;54866;53.458;14.540;2023-04-20T04:52:42;101260.88;;;5.95;97.03
68077;BME280;54866;53.458;14.540;2023-04-20T04:55:11;101257.17;;;5.99;96.89
68077;BME280;54866;53.458;14.540;2023-04-20T04:57:41;101255.79;;;6.02;96.62
68077;BME280;54866;53.458;14.540;2023-04-20T05:00:14;101259.73;;;6.07;96.66
68077;BME280;54866;53.458;14.540;2023-04-20T05:02:43;101272.39;;;6.13;96.56
68077;BME280;54866;53.458;14.540;2023-04-20T05:05:13;101279.13;;;6.18;96.11
68077;BME280;54866;53.458;14.540;2023-04-20T05:07:42;101289.17;;;6.20;96.13
68077;BME280;54866;53.458;14.540;2023-04-20T05:10:12;101289.34;;;6.20;96.01
68077;BME280;54866;53.458;14.540;2023-04-20T05:12:41;101291.55;;;6.21;95.86
68077;BME280;54866;53.458;14.540;2023-04-20T05:15:12;101303.93;;;6.22;96.01
68077;BME280;54866;53.458;14.540;2023-04-20T05:17:41;101299.39;;;6.22;96.32
68077;BME280;54866;53.458;14.540;2023-04-20T05:20:11;101305.13;;;6.22;96.42
68077;BME280;54866;53.458;14.540;2023-04-20T05:22:41;101301.70;;;6.25;96.54
68077;BME280;54866;53.458;14.540;2023-04-20T05:25:11;101310.05;;;6.29;96.37
68077;BME280;54866;53.458;14.540;2023-04-20T05:27:40;101308.55;;;6.35;96.23
68077;BME280;54866;53.458;14.540;2023-04-20T05:30:12;101310.51;;;6.41;96.18
68077;BME280;54866;53.458;14.540;2023-04-20T05:32:41;101306.21;;;6.47;96.28
68077;BME280;54866;53.458;14.540;2023-04-20T05:35:11;101307.22;;;6.51;96.19
68077;BME280;54866;53.458;14.540;2023-04-20T05:37:40;101301.48;;;6.56;96.07
68077;BME280;54866;53.458;14.540;2023-04-20T05:40:10;101306.31;;;6.65;96.00
68077;BME280;54866;53.458;14.540;2023-04-20T05:42:40;101309.29;;;6.71;95.85
68077;BME280;54866;53.458;14.540;2023-04-20T05:45:11;101309.80;;;6.75;95.54
68077;BME280;54866;53.458;14.540;2023-04-20T05:47:40;101315.23;;;6.82;95.48
68077;BME280;54866;53.458;14.540;2023-04-20T05:50:10;101314.69;;;6.88;95.38
68077;BME280;54866;53.458;14.540;2023-04-20T05:52:40;101313.55;;;7.00;95.21
68077;BME280;54866;53.458;14.540;2023-04-20T05:55:10;101311.41;;;7.14;94.63
68077;BME280;54866;53.458;14.540;2023-04-20T05:57:39;101312.55;;;7.25;94.44
68077;BME280;54866;53.458;14.540;2023-04-20T06:00:11;101316.05;;;7.32;94.12
68077;BME280;54866;53.458;14.540;2023-04-20T06:02:41;101315.66;;;7.39;93.69
68077;BME280;54866;53.458;14.540;2023-04-20T06:05:11;101317.31;;;7.43;93.28
68077;BME280;54866;53.458;14.540;2023-04-20T06:07:41;101322.27;;;7.49;92.99
68077;BME280;54866;53.458;14.540;2023-04-20T06:10:11;101320.20;;;7.55;92.91
68077;BME280;54866;53.458;14.540;2023-04-20T06:12:40;101321.63;;;7.61;92.46
68077;BME280;54866;53.458;14.540;2023-04-20T06:15:11;101322.83;;;7.70;92.44
68077;BME280;54866;53.458;14.540;2023-04-20T06:17:40;101325.05;;;7.99;91.67
68077;BME280;54866;53.458;14.540;2023-04-20T06:20:11;101327.64;;;8.75;90.52
68077;BME280;54866;53.458;14.540;2023-04-20T06:22:44;101322.80;;;9.82;88.05
68077;BME280;54866;53.458;14.540;2023-04-20T06:25:13;101318.84;;;11.09;84.04
68077;BME280;54866;53.458;14.540;2023-04-20T06:27:43;101318.09;;;12.31;78.18
68077;BME280;54866;53.458;14.540;2023-04-20T06:30:14;101319.33;;;13.44;73.69
68077;BME280;54866;53.458;14.540;2023-04-20T06:32:44;101318.98;;;14.38;69.57
68077;BME280;54866;53.458;14.540;2023-04-20T06:35:14;101316.83;;;15.30;65.90
68077;BME280;54866;53.458;14.540;2023-04-20T06:37:43;101321.27;;;16.11;59.26
68077;BME280;54866;53.458;14.540;2023-04-20T06:40:13;101316.69;;;16.77;55.98
68077;BME280;54866;53.458;14.540;2023-04-20T06:42:43;101321.60;;;17.45;56.94
68077;BME280;54866;53.458;14.540;2023-04-20T06:45:13;101325.73;;;17.99;55.08
68077;BME280;54866;53.458;14.540;2023-04-20T06:47:42;101331.88;;;18.68;53.66
68077;BME280;54866;53.458;14.540;2023-04-20T06:50:12;101338.80;;;19.53;49.15
68077;BME280;54866;53.458;14.540;2023-04-20T06:52:41;101344.68;;;20.18;45.69
68077;BME280;54866;53.458;14.540;2023-04-20T06:55:10;101347.05;;;20.70;44.83
68077;BME280;54866;53.458;14.540;2023-04-20T06:57:40;101345.11;;;21.03;43.45
68077;BME280;54866;53.458;14.540;2023-04-20T07:00:12;101351.48;;;21.50;42.10
68077;BME280;54866;53.458;14.540;2023-04-20T07:02:46;101341.46;;;21.90;41.37
68077;BME280;54866;53.458;14.540;2023-04-20T07:05:16;101341.46;;;22.36;40.30
68077;BME280;54866;53.458;14.540;2023-04-20T07:07:46;101337.73;;;22.83;38.54
68077;BME280;54866;53.458;14.540;2023-04-20T07:10:16;101325.83;;;23.41;37.72
68077;BME280;54866;53.458;14.540;2023-04-20T07:12:45;101319.64;;;23.88;37.50
68077;BME280;54866;53.458;14.540;2023-04-20T07:15:15;101325.10;;;24.26;35.90
68077;BME280;54866;53.458;14.540;2023-04-20T07:17:44;101321.88;;;23.71;36.08
68077;BME280;54866;53.458;14.540;2023-04-20T07:20:13;101320.80;;;22.30;38.21
68077;BME280;54866;53.458;14.540;2023-04-20T07:22:43;101323.29;;;21.10;40.19
68077;BME280;54866;53.458;14.540;2023-04-20T07:25:12;101320.94;;;20.18;41.58
68077;BME280;54866;53.458;14.540;2023-04-20T07:27:41;101321.31;;;19.56;43.77
68077;BME280;54866;53.458;14.540;2023-04-20T07:30:11;101321.51;;;18.88;43.91
68077;BME280;54866;53.458;14.540;2023-04-20T07:32:41;101327.10;;;18.05;45.99
68077;BME280;54866;53.458;14.540;2023-04-20T07:35:11;101331.61;;;17.35;47.97
68077;BME280;54866;53.458;14.540;2023-04-20T07:37:40;101335.73;;;16.64;49.48
68077;BME280;54866;53.458;14.540;2023-04-20T07:40:11;101342.56;;;16.04;51.31
68077;BME280;54866;53.458;14.540;2023-04-20T07:42:40;101348.10;;;15.37;53.86
68077;BME280;54866;53.458;14.540;2023-04-20T07:45:11;101346.48;;;14.78;55.42
68077;BME280;54866;53.458;14.540;2023-04-20T07:47:41;101342.70;;;14.37;57.08
68077;BME280;54866;53.458;14.540;2023-04-20T07:50:14;101343.76;;;14.07;58.59
68077;BME280;54866;53.458;14.540;2023-04-20T07:52:43;101352.96;;;13.75;59.19
68077;BME280;54866;53.458;14.540;2023-04-20T07:55:12;101354.18;;;13.53;60.34
68077;BME280;54866;53.458;14.540;2023-04-20T07:57:42;101363.22;;;13.36;61.18
68077;BME280;54866;53.458;14.540;2023-04-20T08:00:14;101364.13;;;13.22;62.10
68077;BME280;54866;53.458;14.540;2023-04-20T08:02:45;101369.95;;;13.06;62.28
68077;BME280;54866;53.458;14.540;2023-04-20T08:05:14;101370.27;;;12.99;62.50
68077;BME280;54866;53.458;14.540;2023-04-20T08:07:43;101369.27;;;12.92;63.81
68077;BME280;54866;53.458;14.540;2023-04-20T08:10:13;101369.50;;;12.91;64.18
68077;BME280;54866;53.458;14.540;2023-04-20T08:12:42;101365.88;;;12.92;64.09
68077;BME280;54866;53.458;14.540;2023-04-20T08:15:12;101360.00;;;12.93;63.74
68077;BME280;54866;53.458;14.540;2023-04-20T08:17:41;101362.52;;;12.96;64.16
68077;BME280;54866;53.458;14.540;2023-04-20T08:20:11;101353.55;;;13.03;65.03
68077;BME280;54866;53.458;14.540;2023-04-20T08:22:40;101355.77;;;13.11;64.71
68077;BME280;54866;53.458;14.540;2023-04-20T08:25:10;101355.70;;;13.14;64.74
68077;BME280;54866;53.458;14.540;2023-04-20T08:27:39;101352.71;;;13.20;65.09
68077;BME280;54866;53.458;14.540;2023-04-20T08:30:10;101350.48;;;13.29;64.68
68077;BME280;54866;53.458;14.540;2023-04-20T08:32:39;101347.02;;;13.32;64.48
68077;BME280;54866;53.458;14.540;2023-04-20T08:35:09;101352.54;;;13.34;64.81
68077;BME280;54866;53.458;14.540;2023-04-20T08:37:38;101360.00;;;13.32;64.57
68077;BME280;54866;53.458;14.540;2023-04-20T08:40:10;101356.60;;;13.21;64.37
68077;BME280;54866;53.458;14.540;2023-04-20T08:42:40;101364.52;;;13.12;64.70
68077;BME280;54866;53.458;14.540;2023-04-20T08:45:10;101361.35;;;13.05;65.31
68077;BME280;54866;53.458;14.540;2023-04-20T08:47:40;101362.41;;;13.00;65.16
68077;BME280;54866;53.458;14.540;2023-04-20T08:50:11;101362.34;;;13.02;65.15
68077;BME280;54866;53.458;14.540;2023-04-20T08:52:40;101360.52;;;12.97;64.96
68077;BME280;54866;53.458;14.540;2023-04-20T08:55:13;101355.92;;;12.93;65.16
68077;BME280;54866;53.458;14.540;2023-04-20T08:57:43;101355.32;;;12.98;65.75
68077;BME280;54866;53.458;14.540;2023-04-20T09:00:15;101354.15;;;13.07;65.72
68077;BME280;54866;53.458;14.540;2023-04-20T09:02:53;101358.84;;;13.17;64.92
68077;BME280;54866;53.458;14.540;2023-04-20T09:05:29;101352.96;;;13.26;65.05
68077;BME280;54866;53.458;14.540;2023-04-20T09:08:00;101354.27;;;13.45;65.23
68077;BME280;54866;53.458;14.540;2023-04-20T09:10:41;101353.19;;;13.75;64.78
68077;BME280;54866;53.458;14.540;2023-04-20T09:13:21;101349.59;;;14.31;63.32
68077;BME280;54866;53.458;14.540;2023-04-20T09:15:51;101350.20;;;15.17;60.82
68077;BME280;54866;53.458;14.540;2023-04-20T09:18:20;101348.66;;;15.57;58.53
68077;BME280;54866;53.458;14.540;2023-04-20T09:20:51;101346.82;;;16.02;57.60
68077;BME280;54866;53.458;14.540;2023-04-20T09:23:21;101348.67;;;16.66;56.46
68077;BME280;54866;53.458;14.540;2023-04-20T09:25:52;101349.33;;;17.16;55.36
68077;BME280;54866;53.458;14.540;2023-04-20T09:28:21;101340.98;;;17.47;53.75
68077;BME280;54866;53.458;14.540;2023-04-20T09:30:51;101344.86;;;17.98;53.33
68077;BME280;54866;53.458;14.540;2023-04-20T09:33:26;101343.20;;;19.18;50.17
68077;BME280;54866;53.458;14.540;2023-04-20T09:36:03;101342.05;;;20.44;45.75
68077;BME280;54866;53.458;14.540;2023-04-20T09:38:33;101337.85;;;21.06;44.09
68077;BME280;54866;53.458;14.540;2023-04-20T09:41:04;101338.08;;;22.05;41.89
68077;BME280;54866;53.458;14.540;2023-04-20T09:43:35;101332.09;;;22.53;40.94
68077;BME280;54866;53.458;14.540;2023-04-20T09:46:05;101329.38;;;23.13;39.86
68077;BME280;54866;53.458;14.540;2023-04-20T09:48:36;101329.73;;;23.59;40.08
68077;BME280;54866;53.458;14.540;2023-04-20T09:51:07;101328.23;;;24.41;36.72
68077;BME280;54866;53.458;14.540;2023-04-20T09:53:37;101324.34;;;25.13;36.05
68077;BME280;54866;53.458;14.540;2023-04-20T09:56:06;101316.75;;;25.93;34.07
68077;BME280;54866;53.458;14.540;2023-04-20T09:58:36;101313.98;;;26.15;32.88
68077;BME280;54866;53.458;14.540;2023-04-20T10:01:09;101308.95;;;26.68;32.36
68077;BME280;54866;53.458;14.540;2023-04-20T10:03:41;101305.77;;;26.82;31.45
68077;BME280;54866;53.458;14.540;2023-04-20T10:06:20;101304.02;;;26.99;30.87
68077;BME280;54866;53.458;14.540;2023-04-20T10:08:51;101299.06;;;27.29;29.91
68077;BME280;54866;53.458;14.540;2023-04-20T10:11:31;101300.41;;;27.12;28.44
68077;BME280;54866;53.458;14.540;2023-04-20T10:14:15;101303.89;;;27.03;28.65
68077;BME280;54866;53.458;14.540;2023-04-20T10:16:56;101302.88;;;27.12;29.50
68077;BME280;54866;53.458;14.540;2023-04-20T10:19:36;101300.39;;;26.84;28.68
68077;BME280;54866;53.458;14.540;2023-04-20T10:22:07;101289.64;;;26.76;29.05
68077;BME280;54866;53.458;14.540;2023-04-20T10:24:37;101288.85;;;26.68;29.97
68077;BME280;54866;53.458;14.540;2023-04-20T10:27:16;101286.76;;;27.11;30.13
68077;BME280;54866;53.458;14.540;2023-04-20T10:29:46;101287.17;;;27.76;29.58
68077;BME280;54866;53.458;14.540;2023-04-20T10:32:26;101281.20;;;27.96;28.66
68077;BME280;54866;53.458;14.540;2023-04-20T10:35:03;101276.23;;;27.97;28.24
68077;BME280;54866;53.458;14.540;2023-04-20T10:37:34;101274.41;;;28.04;27.78
68077;BME280;54866;53.458;14.540;2023-04-20T10:40:04;101276.79;;;27.91;27.79
68077;BME280;54866;53.458;14.540;2023-04-20T10:42:43;101273.63;;;27.73;27.64
68077;BME280;54866;53.458;14.540;2023-04-20T10:45:13;101277.84;;;27.74;28.94
68077;BME280;54866;53.458;14.540;2023-04-20T10:47:42;101272.40;;;28.22;29.79
68077;BME280;54866;53.458;14.540;2023-04-20T10:50:14;101275.21;;;28.51;28.87
68077;BME280;54866;53.458;14.540;2023-04-20T10:52:45;101278.27;;;28.36;28.03
68077;BME280;54866;53.458;14.540;2023-04-20T10:55:21;101268.15;;;27.80;28.27
68077;BME280;54866;53.458;14.540;2023-04-20T10:57:52;101266.70;;;26.81;29.63
68077;BME280;54866;53.458;14.540;2023-04-20T11:00:24;101273.34;;;26.15;30.64
68077;BME280;54866;53.458;14.540;2023-04-20T11:02:56;101274.83;;;25.48;31.52
68077;BME280;54866;53.458;14.540;2023-04-20T11:05:27;101274.57;;;25.05;32.64
68077;BME280;54866;53.458;14.540;2023-04-20T11:07:57;101277.23;;;25.17;32.82
68077;BME280;54866;53.458;14.540;2023-04-20T11:10:38;101272.88;;;24.90;31.75
68077;BME280;54866;53.458;14.540;2023-04-20T11:13:19;101276.64;;;24.46;32.04
68077;BME280;54866;53.458;14.540;2023-04-20T11:15:51;101278.70;;;24.01;32.91
68077;BME280;54866;53.458;14.540;2023-04-20T11:18:20;101270.89;;;23.80;33.35
68077;BME280;54866;53.458;14.540;2023-04-20T11:20:53;101273.46;;;23.75;34.07
68077;BME280;54866;53.458;14.540;2023-04-20T11:23:24;101275.40;;;23.95;34.54
68077;BME280;54866;53.458;14.540;2023-04-20T11:25:55;101272.42;;;23.91;34.38
68077;BME280;54866;53.458;14.540;2023-04-20T11:28:25;101276.42;;;23.89;34.70
68077;BME280;54866;53.458;14.540;2023-04-20T11:31:01;101271.09;;;24.47;34.43
68077;BME280;54866;53.458;14.540;2023-04-20T11:33:31;101266.61;;;24.99;33.09
68077;BME280;54866;53.458;14.540;2023-04-20T11:36:01;101264.11;;;25.46;33.05
68077;BME280;54866;53.458;14.540;2023-04-20T11:38:33;101260.87;;;25.94;31.96
68077;BME280;54866;53.458;14.540;2023-04-20T11:41:02;101252.80;;;26.22;31.76
68077;BME280;54866;53.458;14.540;2023-04-20T11:43:35;101251.67;;;26.46;31.52
68077;BME280;54866;53.458;14.540;2023-04-20T11:46:13;101241.84;;;26.79;31.03
68077;BME280;54866;53.458;14.540;2023-04-20T11:48:44;101247.75;;;27.16;30.20
68077;BME280;54866;53.458;14.540;2023-04-20T11:51:14;101245.52;;;27.39;29.36
68077;BME280;54866;53.458;14.540;2023-04-20T11:53:44;101238.48;;;27.17;29.48
68077;BME280;54866;53.458;14.540;2023-04-20T11:56:13;101236.98;;;26.93;28.52
68077;BME280;54866;53.458;14.540;2023-04-20T11:58:43;101241.23;;;26.60;29.79
68077;BME280;54866;53.458;14.540;2023-04-20T12:01:13;101241.86;;;26.69;29.76
68077;BME280;54866;53.458;14.540;2023-04-20T12:03:44;101238.25;;;26.68;29.87
68077;BME280;54866;53.458;14.540;2023-04-20T12:06:13;101236.11;;;26.59;29.62
68077;BME280;54866;53.458;14.540;2023-04-20T12:08:43;101232.98;;;26.50;29.26
68077;BME280;54866;53.458;14.540;2023-04-20T12:11:13;101231.38;;;26.12;29.92
68077;BME280;54866;53.458;14.540;2023-04-20T12:13:44;101228.95;;;26.15;30.47
68077;BME280;54866;53.458;14.540;2023-04-20T12:16:13;101227.36;;;26.17;30.32
68077;BME280;54866;53.458;14.540;2023-04-20T12:18:42;101223.30;;;26.09;30.38
68077;BME280;54866;53.458;14.540;2023-04-20T12:21:12;101222.86;;;26.01;30.24
68077;BME280;54866;53.458;14.540;2023-04-20T12:23:42;101227.60;;;25.88;29.60
68077;BME280;54866;53.458;14.540;2023-04-20T12:26:12;101223.35;;;25.79;29.90
68077;BME280;54866;53.458;14.540;2023-04-20T12:28:41;101224.81;;;24.94;29.83
68077;BME280;54866;53.458;14.540;2023-04-20T12:31:12;101224.38;;;23.99;31.40
68077;BME280;54866;53.458;14.540;2023-04-20T12:33:41;101225.60;;;23.15;32.66
68077;BME280;54866;53.458;14.540;2023-04-20T12:36:11;101229.13;;;22.45;33.87
68077;BME280;54866;53.458;14.540;2023-04-20T12:38:41;101229.69;;;21.78;34.99
68077;BME280;54866;53.458;14.540;2023-04-20T12:41:14;101226.38;;;21.22;35.84
68077;BME280;54866;53.458;14.540;2023-04-20T12:43:44;101228.64;;;20.69;36.89
68077;BME280;54866;53.458;14.540;2023-04-20T12:46:13;101232.66;;;20.38;37.82
68077;BME280;54866;53.458;14.540;2023-04-20T12:48:43;101230.42;;;20.08;38.44
68077;BME280;54866;53.458;14.540;2023-04-20T12:51:13;101227.88;;;19.76;38.61
68077;BME280;54866;53.458;14.540;2023-04-20T12:53:43;101224.74;;;19.41;39.51
68077;BME280;54866;53.458;14.540;2023-04-20T12:56:12;101218.63;;;19.13;40.37
68077;BME280;54866;53.458;14.540;2023-04-20T12:58:42;101219.67;;;19.27;40.89
68077;BME280;54866;53.458;14.540;2023-04-20T13:01:12;101220.63;;;19.98;40.87
68077;BME280;54866;53.458;14.540;2023-04-20T13:03:41;101214.29;;;20.61;40.14